createdAt,value
2023-08-11T00:02:22.232Z,15.29
2023-08-11T00:04:51.169Z,15.28
2023-08-11T00:07:18.780Z,15.26
2023-08-11T00:09:46.665Z,15.24
2023-08-11T00:12:14.304Z,15.24
2023-08-11T00:14:41.993Z,15.23
2023-08-11T00:17:10.285Z,15.17
2023-08-11T00:19:37.901Z,15.16
2023-08-11T00:22:07.249Z,15.11
2023-08-11T00:24:34.868Z,15.08
2023-08-11T00:27:02.979Z,15.06
2023-08-11T00:29:31.861Z,15.05
2023-08-11T00:31:59.812Z,15.05
2023-08-11T00:34:27.465Z,15.04
2023-08-11T00:36:56.323Z,15.02
2023-08-11T00:39:24.548Z,15.03
2023-08-11T00:41:52.478Z,15.02
2023-08-11T00:44:20.092Z,15.00
2023-08-11T00:46:48.841Z,15.00
2023-08-11T00:49:16.452Z,14.99
2023-08-11T00:51:44.043Z,14.99
2023-08-11T00:54:12.024Z,15.00
2023-08-11T00:56:43.187Z,15.00
2023-08-11T00:59:11.146Z,15.00
2023-08-11T01:01:38.810Z,14.99
2023-08-11T01:04:08.306Z,14.99
2023-08-11T01:06:36.031Z,15.00
2023-08-11T01:09:04.399Z,14.98
2023-08-11T01:11:31.965Z,14.94
2023-08-11T01:14:00.461Z,14.90
2023-08-11T01:16:28.497Z,14.86
2023-08-11T01:18:56.150Z,14.81
2023-08-11T01:21:24.001Z,14.80
2023-08-11T01:23:51.574Z,14.79
2023-08-11T01:26:19.148Z,14.79
2023-08-11T01:28:48.469Z,14.81
2023-08-11T01:31:16.099Z,14.81
2023-08-11T01:33:43.677Z,14.82
2023-08-11T01:36:11.249Z,14.81
2023-08-11T01:38:38.869Z,14.80
2023-08-11T01:41:07.772Z,14.78
2023-08-11T01:43:35.385Z,14.77
2023-08-11T01:46:03.072Z,14.74
2023-08-11T01:48:30.683Z,14.73
2023-08-11T01:50:58.251Z,14.70
2023-08-11T01:53:25.919Z,14.69
2023-08-11T01:55:53.513Z,14.67
2023-08-11T01:58:21.556Z,14.64
2023-08-11T02:00:49.187Z,14.60
2023-08-11T02:03:16.809Z,14.57
2023-08-11T02:05:45.197Z,14.55
2023-08-11T02:08:18.684Z,14.53
2023-08-11T02:10:47.230Z,14.51
2023-08-11T02:13:14.893Z,14.50
2023-08-11T02:15:42.556Z,14.51
2023-08-11T02:18:10.738Z,14.49
2023-08-11T02:20:38.786Z,14.48
2023-08-11T02:23:06.415Z,14.47
2023-08-11T02:25:35.056Z,14.47
2023-08-11T02:28:02.832Z,14.45
2023-08-11T02:30:31.551Z,14.45
2023-08-11T02:32:59.161Z,14.45
2023-08-11T02:35:26.743Z,14.45
2023-08-11T02:37:54.655Z,14.43
2023-08-11T02:40:22.270Z,14.44
2023-08-11T02:42:50.322Z,14.43
2023-08-11T02:45:17.955Z,14.42
2023-08-11T02:47:45.559Z,14.42
2023-08-11T02:50:14.472Z,14.38
2023-08-11T02:52:42.283Z,14.36
2023-08-11T02:55:10.212Z,14.32
2023-08-11T02:57:38.105Z,14.30
2023-08-11T03:00:09.470Z,14.28
2023-08-11T03:02:37.105Z,14.25
2023-08-11T03:05:05.166Z,14.24
2023-08-11T03:07:33.272Z,14.21
2023-08-11T03:10:00.827Z,14.19
2023-08-11T03:12:29.052Z,14.18
2023-08-11T03:14:56.666Z,14.16
2023-08-11T03:17:24.325Z,14.15
2023-08-11T03:19:52.914Z,14.14
2023-08-11T03:22:21.039Z,14.13
2023-08-11T03:24:48.619Z,14.14
2023-08-11T03:27:17.443Z,14.13
2023-08-11T03:29:45.045Z,14.12
2023-08-11T03:32:12.759Z,14.10
2023-08-11T03:34:40.342Z,14.09
2023-08-11T03:37:08.163Z,14.06
2023-08-11T03:39:35.733Z,14.04
2023-08-11T03:42:03.310Z,14.02
2023-08-11T03:44:31.135Z,14.03
2023-08-11T03:46:58.710Z,14.03
2023-08-11T03:49:26.789Z,14.07
2023-08-11T03:51:54.494Z,14.07
2023-08-11T03:54:29.023Z,14.06
2023-08-11T03:57:08.087Z,14.04
2023-08-11T03:59:35.687Z,14.01
2023-08-11T04:02:03.497Z,13.97
2023-08-11T04:04:31.127Z,13.94
2023-08-11T04:06:58.688Z,13.92
2023-08-11T04:09:26.797Z,13.91
2023-08-11T04:11:54.428Z,13.93
2023-08-11T04:14:22.010Z,13.95
2023-08-11T04:16:49.958Z,13.96
2023-08-11T04:19:17.600Z,13.98
2023-08-11T04:21:45.226Z,13.98
2023-08-11T04:24:12.836Z,14.00
2023-08-11T04:26:40.577Z,14.03
2023-08-11T04:29:08.221Z,14.06
2023-08-11T04:31:36.162Z,14.06
2023-08-11T04:34:05.279Z,14.10
2023-08-11T04:36:33.515Z,14.12
2023-08-11T04:39:01.191Z,14.15
2023-08-11T04:41:28.830Z,14.19
2023-08-11T04:43:56.918Z,14.23
2023-08-11T04:46:24.705Z,14.28
2023-08-11T04:48:52.355Z,14.35
2023-08-11T04:51:20.028Z,14.42
2023-08-11T04:53:48.024Z,14.51
2023-08-11T04:56:15.682Z,14.60
2023-08-11T04:58:43.258Z,14.70
2023-08-11T05:01:10.886Z,14.79
2023-08-11T05:03:38.633Z,14.87
2023-08-11T05:06:07.137Z,14.98
2023-08-11T05:08:34.902Z,15.07
2023-08-11T05:11:02.682Z,15.14
2023-08-11T05:13:30.325Z,15.23
2023-08-11T05:15:58.427Z,15.32
2023-08-11T05:18:31.928Z,15.41
2023-08-11T05:21:06.921Z,15.51
2023-08-11T05:23:34.711Z,15.60
2023-08-11T05:26:02.382Z,15.70
2023-08-11T05:28:30.041Z,15.80
2023-08-11T05:30:57.854Z,15.89
2023-08-11T05:33:26.186Z,15.97
2023-08-11T05:35:53.791Z,16.06
2023-08-11T05:38:21.598Z,16.13
2023-08-11T05:40:49.215Z,16.17
2023-08-11T05:43:16.853Z,16.23
2023-08-11T05:45:44.878Z,16.31
2023-08-11T05:48:12.600Z,16.38
2023-08-11T05:50:40.232Z,16.45
2023-08-11T05:53:07.946Z,16.54
2023-08-11T05:55:35.653Z,16.64
2023-08-11T05:58:04.851Z,16.76
2023-08-11T06:00:32.812Z,16.84
2023-08-11T06:03:00.510Z,16.96
2023-08-11T06:05:28.288Z,17.08
2023-08-11T06:08:05.768Z,17.20
2023-08-11T06:10:34.837Z,17.36
2023-08-11T06:13:02.512Z,17.50
2023-08-11T06:15:31.560Z,17.64
2023-08-11T06:17:59.407Z,17.76
2023-08-11T06:20:40.333Z,17.85
2023-08-11T06:23:09.153Z,17.97
2023-08-11T06:25:36.942Z,18.08
2023-08-11T06:28:04.739Z,18.22
2023-08-11T06:30:32.498Z,18.34
2023-08-11T06:33:00.284Z,18.48
2023-08-11T06:35:28.149Z,18.61
2023-08-11T06:37:55.841Z,18.74
2023-08-11T06:40:23.659Z,18.88
2023-08-11T06:42:51.372Z,19.02
2023-08-11T06:45:19.006Z,19.15
2023-08-11T06:47:47.099Z,19.28
2023-08-11T06:50:14.876Z,19.41
2023-08-11T06:52:42.607Z,19.54
2023-08-11T06:55:10.457Z,19.65
2023-08-11T06:57:38.315Z,19.79
2023-08-11T07:00:08.550Z,19.92
2023-08-11T07:02:36.453Z,20.04
2023-08-11T07:05:04.298Z,20.18
2023-08-11T07:07:32.117Z,20.31
2023-08-11T07:10:03.772Z,20.43
2023-08-11T07:12:34.925Z,20.59
2023-08-11T07:15:02.690Z,20.72
2023-08-11T07:17:30.372Z,20.83
2023-08-11T07:19:58.156Z,20.93
2023-08-11T07:22:26.233Z,21.06
2023-08-11T07:24:54.528Z,21.23
2023-08-11T07:27:22.259Z,21.40
2023-08-11T07:29:50.096Z,21.54
2023-08-11T07:32:17.833Z,21.68
2023-08-11T07:34:45.516Z,21.82
2023-08-11T07:37:13.865Z,21.96
2023-08-11T07:39:41.547Z,22.09
2023-08-11T07:42:11.933Z,22.21
2023-08-11T07:44:40.050Z,22.35
2023-08-11T07:47:08.561Z,22.47
2023-08-11T07:49:37.179Z,22.60
2023-08-11T07:52:05.030Z,22.71
2023-08-11T07:54:32.793Z,22.83
2023-08-11T07:57:00.711Z,22.93
2023-08-11T07:59:28.603Z,23.05
2023-08-11T08:01:56.628Z,23.15
2023-08-11T08:04:24.656Z,23.24
2023-08-11T08:06:52.880Z,23.35
2023-08-11T08:09:20.705Z,23.49
2023-08-11T08:11:48.967Z,23.61
2023-08-11T08:14:16.833Z,23.73
2023-08-11T08:16:46.185Z,23.84
2023-08-11T08:19:15.466Z,23.97
2023-08-11T08:21:43.846Z,24.08
2023-08-11T08:24:11.609Z,24.18
2023-08-11T08:26:39.472Z,24.29
2023-08-11T08:29:07.670Z,24.40
2023-08-11T08:31:35.467Z,24.53
2023-08-11T08:34:04.044Z,24.63
2023-08-11T08:36:31.971Z,24.72
2023-08-11T08:39:00.291Z,24.82
2023-08-11T08:41:31.715Z,24.93
2023-08-11T08:43:59.396Z,25.03
2023-08-11T08:46:27.270Z,25.12
2023-08-11T08:48:55.629Z,25.20
2023-08-11T08:51:23.524Z,25.29
2023-08-11T08:53:51.226Z,25.35
2023-08-11T08:56:19.035Z,25.41
2023-08-11T08:58:46.913Z,25.50
2023-08-11T09:01:14.844Z,25.60
2023-08-11T09:03:43.435Z,25.71
2023-08-11T09:06:11.572Z,25.83
2023-08-11T09:08:39.758Z,25.95
2023-08-11T09:11:08.966Z,26.05
2023-08-11T09:13:38.001Z,26.15
2023-08-11T09:16:05.743Z,26.24
2023-08-11T09:18:33.686Z,26.33
2023-08-11T09:21:01.660Z,26.42
2023-08-11T09:23:29.509Z,26.51
2023-08-11T09:25:57.342Z,26.61
2023-08-11T09:28:25.271Z,26.73
2023-08-11T09:30:53.060Z,26.83
2023-08-11T09:33:21.426Z,26.91
2023-08-11T09:35:49.596Z,26.98
2023-08-11T09:38:17.429Z,27.04
2023-08-11T09:40:46.143Z,27.12
2023-08-11T09:43:14.034Z,27.24
2023-08-11T09:45:41.876Z,27.35
2023-08-11T09:48:09.782Z,27.57
2023-08-11T09:50:37.928Z,27.92
2023-08-11T09:53:06.353Z,28.39
2023-08-11T09:55:34.620Z,28.88
2023-08-11T09:58:02.610Z,29.31
2023-08-11T10:00:31.980Z,29.66
2023-08-11T10:03:00.029Z,30.07
2023-08-11T10:05:30.583Z,30.48
2023-08-11T10:07:58.811Z,30.78
2023-08-11T10:10:28.490Z,31.08
2023-08-11T10:12:56.353Z,31.37
2023-08-11T10:15:24.256Z,31.74
2023-08-11T10:17:52.514Z,32.05
2023-08-11T10:20:20.537Z,32.32
2023-08-11T10:22:48.355Z,32.65
2023-08-11T10:25:16.451Z,33.00
2023-08-11T10:27:44.383Z,33.15
2023-08-11T10:30:12.315Z,33.35
2023-08-11T10:32:40.366Z,33.53
2023-08-11T10:35:08.438Z,33.78
2023-08-11T10:37:37.272Z,33.89
2023-08-11T10:40:05.218Z,34.15
2023-08-11T10:42:33.176Z,34.31
2023-08-11T10:45:01.024Z,34.56
2023-08-11T10:47:28.895Z,34.84
2023-08-11T10:49:56.745Z,35.08
2023-08-11T10:52:24.526Z,35.38
2023-08-11T10:54:52.669Z,35.62
2023-08-11T10:57:22.007Z,35.86
2023-08-11T10:59:49.827Z,35.96
2023-08-11T11:02:17.949Z,36.07
2023-08-11T11:04:46.061Z,36.44
2023-08-11T11:07:14.643Z,36.60
2023-08-11T11:09:42.555Z,36.68
2023-08-11T11:12:11.871Z,36.76
2023-08-11T11:14:39.928Z,36.88
2023-08-11T11:17:07.932Z,37.00
2023-08-11T11:19:37.021Z,37.04
2023-08-11T11:22:05.385Z,37.21
2023-08-11T11:24:33.744Z,37.27
2023-08-11T11:27:01.552Z,37.40
2023-08-11T11:29:29.890Z,37.64
2023-08-11T11:32:01.794Z,37.86
2023-08-11T11:34:31.102Z,38.06
2023-08-11T11:36:58.777Z,38.31
2023-08-11T11:39:26.778Z,38.44
2023-08-11T11:41:54.566Z,38.29
2023-08-11T11:44:22.342Z,37.95
2023-08-11T11:46:50.688Z,37.90
2023-08-11T11:49:29.310Z,38.17
2023-08-11T11:51:57.889Z,38.44
2023-08-11T11:54:26.440Z,38.38
2023-08-11T11:57:04.301Z,38.16
2023-08-11T11:59:32.858Z,38.21
2023-08-11T12:02:01.093Z,38.41
2023-08-11T12:04:28.927Z,38.56
2023-08-11T12:06:57.365Z,38.36
2023-08-11T12:09:25.090Z,38.10
2023-08-11T12:11:53.186Z,37.89
2023-08-11T12:14:21.122Z,37.69
2023-08-11T12:16:49.712Z,37.87
2023-08-11T12:19:17.627Z,37.95
2023-08-11T12:21:45.525Z,38.14
2023-08-11T12:24:13.223Z,38.26
2023-08-11T12:26:40.944Z,38.42
2023-08-11T12:29:09.330Z,38.69
2023-08-11T12:31:37.515Z,38.78
2023-08-11T12:34:05.244Z,39.06
2023-08-11T12:36:33.195Z,39.13
2023-08-11T12:39:00.970Z,39.21
2023-08-11T12:41:28.920Z,39.17
2023-08-11T12:43:56.915Z,38.92
2023-08-11T12:46:24.793Z,38.19
2023-08-11T12:48:52.888Z,37.82
2023-08-11T12:51:21.116Z,37.55
2023-08-11T12:53:49.065Z,37.37
2023-08-11T12:56:17.040Z,37.11
2023-08-11T12:58:44.925Z,36.86
2023-08-11T13:01:14.426Z,36.47
2023-08-11T13:03:44.234Z,35.94
2023-08-11T13:06:12.536Z,35.60
2023-08-11T13:08:40.578Z,35.51
2023-08-11T13:11:08.441Z,35.45
2023-08-11T13:13:36.406Z,35.36
2023-08-11T13:16:04.273Z,35.14
2023-08-11T13:18:32.533Z,35.04
2023-08-11T13:21:00.670Z,34.97
2023-08-11T13:23:30.487Z,34.85
2023-08-11T13:25:58.488Z,34.71
2023-08-11T13:28:26.364Z,34.66
2023-08-11T13:30:59.969Z,34.53
2023-08-11T13:33:30.022Z,34.49
2023-08-11T13:35:57.969Z,34.26
2023-08-11T13:38:27.764Z,34.00
2023-08-11T13:41:08.106Z,34.28
2023-08-11T13:43:36.007Z,34.68
2023-08-11T13:46:03.980Z,34.96
2023-08-11T13:48:31.976Z,35.01
2023-08-11T13:50:59.958Z,35.05
2023-08-11T13:53:27.856Z,35.17
2023-08-11T13:55:55.780Z,35.18
2023-08-11T13:58:24.215Z,34.87
2023-08-11T14:00:53.241Z,34.61
2023-08-11T14:03:23.628Z,34.44
2023-08-11T14:05:51.378Z,34.38
2023-08-11T14:08:20.850Z,34.37
2023-08-11T14:10:48.904Z,34.23
2023-08-11T14:13:17.165Z,34.25
2023-08-11T14:15:46.253Z,34.23
2023-08-11T14:18:14.494Z,34.17
2023-08-11T14:20:42.467Z,34.05
2023-08-11T14:23:10.350Z,34.08
2023-08-11T14:25:38.321Z,34.09
2023-08-11T14:28:06.282Z,34.11
2023-08-11T14:30:34.218Z,34.05
2023-08-11T14:33:02.088Z,34.06
2023-08-11T14:35:29.998Z,34.01
2023-08-11T14:37:57.861Z,33.94
2023-08-11T14:40:26.487Z,34.04
2023-08-11T14:42:54.342Z,34.24
2023-08-11T14:45:22.126Z,34.30
2023-08-11T14:47:49.962Z,34.28
2023-08-11T14:50:17.891Z,34.37
2023-08-11T14:52:46.347Z,34.54
2023-08-11T14:55:14.241Z,34.49
2023-08-11T14:57:42.630Z,34.28
2023-08-11T15:00:10.810Z,33.87
2023-08-11T15:02:38.980Z,33.60
2023-08-11T15:05:08.301Z,33.56
2023-08-11T15:07:36.119Z,33.47
2023-08-11T15:10:04.443Z,33.32
2023-08-11T15:12:32.334Z,33.16
2023-08-11T15:15:00.255Z,32.99
2023-08-11T15:17:28.881Z,32.92
2023-08-11T15:19:57.105Z,32.73
2023-08-11T15:22:25.060Z,32.49
2023-08-11T15:24:53.120Z,32.32
2023-08-11T15:27:22.349Z,32.28
2023-08-11T15:29:51.178Z,32.14
2023-08-11T15:32:19.574Z,32.10
2023-08-11T15:34:47.349Z,32.19
2023-08-11T15:37:15.162Z,32.18
2023-08-11T15:39:43.136Z,32.30
2023-08-11T15:42:11.791Z,32.50
2023-08-11T15:44:39.834Z,32.73
2023-08-11T15:47:07.757Z,32.91
2023-08-11T15:49:35.549Z,33.13
2023-08-11T15:52:03.422Z,33.61
2023-08-11T15:54:31.731Z,34.19
2023-08-11T15:56:59.722Z,34.77
2023-08-11T15:59:27.733Z,35.31
2023-08-11T16:02:14.756Z,35.55
2023-08-11T16:04:43.050Z,34.90
2023-08-11T16:07:10.935Z,34.13
2023-08-11T16:09:38.746Z,33.70
2023-08-11T16:12:06.572Z,33.73
2023-08-11T16:14:34.450Z,33.64
2023-08-11T16:17:02.564Z,33.32
2023-08-11T16:19:30.490Z,33.43
2023-08-11T16:21:58.505Z,34.45
2023-08-11T16:24:26.682Z,35.48
2023-08-11T16:26:54.589Z,36.21
2023-08-11T16:29:23.181Z,36.85
2023-08-11T16:31:52.616Z,37.47
2023-08-11T16:34:20.515Z,37.21
2023-08-11T16:36:48.418Z,36.39
2023-08-11T16:39:16.281Z,35.34
2023-08-11T16:41:44.318Z,34.41
2023-08-11T16:44:12.536Z,33.65
2023-08-11T16:46:40.849Z,33.01
2023-08-11T16:49:08.684Z,32.43
2023-08-11T16:51:36.597Z,31.89
2023-08-11T16:54:04.750Z,31.44
2023-08-11T16:56:32.572Z,31.05
2023-08-11T16:59:00.513Z,30.80
2023-08-11T17:01:28.536Z,30.57
2023-08-11T17:03:56.649Z,30.32
2023-08-11T17:06:25.325Z,30.18
2023-08-11T17:08:53.312Z,30.10
2023-08-11T17:11:21.234Z,30.05
2023-08-11T17:13:49.638Z,30.02
2023-08-11T17:16:17.709Z,29.94
2023-08-11T17:18:46.469Z,29.88
2023-08-11T17:21:20.899Z,29.78
2023-08-11T17:23:48.870Z,29.67
2023-08-11T17:26:17.251Z,29.56
2023-08-11T17:28:45.621Z,29.44
2023-08-11T17:31:14.530Z,29.30
2023-08-11T17:33:42.489Z,29.17
2023-08-11T17:36:10.354Z,29.03
2023-08-11T17:38:38.362Z,28.90
2023-08-11T17:41:07.078Z,28.81
2023-08-11T17:43:34.910Z,28.67
2023-08-11T17:46:03.008Z,28.51
2023-08-11T17:48:30.930Z,28.37
2023-08-11T17:50:58.768Z,28.26
2023-08-11T17:53:26.711Z,28.18
2023-08-11T17:55:55.333Z,28.08
2023-08-11T17:58:23.162Z,27.99
2023-08-11T18:00:51.132Z,27.90
2023-08-11T18:03:19.147Z,27.78
2023-08-11T18:05:47.100Z,27.66
2023-08-11T18:08:15.266Z,27.54
2023-08-11T18:10:43.154Z,27.41
2023-08-11T18:13:10.951Z,27.27
2023-08-11T18:15:38.909Z,27.13
2023-08-11T18:18:06.899Z,26.99
2023-08-11T18:20:35.265Z,26.86
2023-08-11T18:23:03.240Z,26.71
2023-08-11T18:25:31.172Z,26.57
2023-08-11T18:27:59.067Z,26.44
2023-08-11T18:30:26.817Z,26.32
2023-08-11T18:32:55.247Z,26.20
2023-08-11T18:35:23.081Z,26.05
2023-08-11T18:37:50.780Z,25.95
2023-08-11T18:40:18.678Z,25.84
2023-08-11T18:42:46.419Z,25.74
2023-08-11T18:45:15.012Z,25.64
2023-08-11T18:47:42.973Z,25.55
2023-08-11T18:50:10.834Z,25.46
2023-08-11T18:52:38.784Z,25.37
2023-08-11T18:55:06.992Z,25.30
2023-08-11T18:57:35.877Z,25.22
2023-08-11T19:00:06.342Z,25.13
2023-08-11T19:02:34.297Z,25.06
2023-08-11T19:05:02.190Z,24.98
2023-08-11T19:07:30.017Z,24.91
2023-08-11T19:09:59.489Z,24.83
2023-08-11T19:12:27.426Z,24.74
2023-08-11T19:14:55.425Z,24.64
2023-08-11T19:17:23.763Z,24.55
2023-08-11T19:19:51.653Z,24.49
2023-08-11T19:22:21.192Z,24.41
2023-08-11T19:24:49.110Z,24.32
2023-08-11T19:27:17.017Z,24.20
2023-08-11T19:29:44.974Z,24.10
2023-08-11T19:32:13.492Z,24.00
2023-08-11T19:34:41.702Z,23.89
2023-08-11T19:37:09.630Z,23.79
2023-08-11T19:39:38.660Z,23.72
2023-08-11T19:42:06.608Z,23.66
2023-08-11T19:44:35.631Z,23.60
2023-08-11T19:47:07.002Z,23.55
2023-08-11T19:49:34.979Z,23.49
2023-08-11T19:52:02.822Z,23.39
2023-08-11T19:54:30.678Z,23.30
2023-08-11T19:56:58.598Z,23.23
2023-08-11T19:59:27.058Z,23.18
2023-08-11T20:01:55.344Z,23.14
2023-08-11T20:04:24.581Z,23.10
2023-08-11T20:06:52.531Z,23.07
2023-08-11T20:09:20.692Z,23.04
2023-08-11T20:11:48.594Z,23.01
2023-08-11T20:14:17.105Z,22.98
2023-08-11T20:16:45.046Z,22.95
2023-08-11T20:19:12.809Z,22.95
2023-08-11T20:21:40.790Z,22.93
2023-08-11T20:24:09.147Z,22.91
2023-08-11T20:26:37.162Z,22.88
2023-08-11T20:29:07.799Z,22.83
2023-08-11T20:31:35.717Z,22.79
2023-08-11T20:34:03.589Z,22.76
2023-08-11T20:36:32.195Z,22.69
2023-08-11T20:38:59.004Z,22.64
2023-08-11T20:41:26.909Z,22.61
2023-08-11T20:43:54.821Z,22.58
2023-08-11T20:46:23.215Z,22.55
2023-08-11T20:48:52.143Z,22.51
2023-08-11T20:51:21.196Z,22.47
2023-08-11T20:53:49.166Z,22.43
2023-08-11T20:56:17.029Z,22.39
2023-08-11T20:58:44.940Z,22.35
2023-08-11T21:01:13.562Z,22.32
2023-08-11T21:03:41.345Z,22.30
2023-08-11T21:06:09.149Z,22.27
2023-08-11T21:08:37.045Z,22.25
2023-08-11T21:11:04.830Z,22.22
2023-08-11T21:13:33.059Z,22.20
2023-08-11T21:16:00.949Z,22.15
2023-08-11T21:18:28.828Z,22.10
2023-08-11T21:20:56.640Z,22.02
2023-08-11T21:23:24.591Z,21.94
2023-08-11T21:25:54.182Z,21.87
2023-08-11T21:28:22.308Z,21.81
2023-08-11T21:30:52.112Z,21.77
2023-08-11T21:33:23.290Z,21.73
2023-08-11T21:35:51.062Z,21.72
2023-08-11T21:38:19.691Z,21.72
2023-08-11T21:40:47.504Z,21.72
2023-08-11T21:43:16.201Z,21.74
2023-08-11T21:45:43.986Z,21.75
2023-08-11T21:48:12.044Z,21.76
2023-08-11T21:50:40.389Z,21.76
2023-08-11T21:53:21.587Z,21.75
2023-08-11T21:55:51.643Z,21.72
2023-08-11T21:58:19.537Z,21.71
2023-08-11T22:00:47.443Z,21.69
2023-08-11T22:03:15.378Z,21.68
2023-08-11T22:05:43.373Z,21.66
2023-08-11T22:08:11.375Z,21.66
2023-08-11T22:10:39.284Z,21.68
2023-08-11T22:13:07.049Z,21.71
2023-08-11T22:15:34.872Z,21.73
2023-08-11T22:18:02.805Z,21.73
2023-08-11T22:20:30.550Z,21.74
2023-08-11T22:22:58.304Z,21.75
2023-08-11T22:25:26.230Z,21.77
2023-08-11T22:27:53.916Z,21.80
2023-08-11T22:30:21.692Z,21.83
2023-08-11T22:32:49.972Z,21.85
2023-08-11T22:35:17.682Z,21.87
2023-08-11T22:37:45.371Z,21.89
2023-08-11T22:40:13.192Z,21.90
2023-08-11T22:42:41.015Z,21.89
2023-08-11T22:45:08.708Z,21.88
2023-08-11T22:47:36.489Z,21.90
2023-08-11T22:50:04.741Z,21.93
2023-08-11T22:52:32.416Z,21.97
2023-08-11T22:55:00.451Z,22.02
2023-08-11T22:57:28.164Z,22.09
2023-08-11T22:59:55.946Z,22.15
2023-08-11T23:02:24.471Z,22.20
2023-08-11T23:04:55.384Z,22.25
2023-08-11T23:07:23.906Z,22.29
2023-08-11T23:09:51.778Z,22.32
2023-08-11T23:12:19.427Z,22.36
2023-08-11T23:14:47.616Z,22.40
2023-08-11T23:17:16.010Z,22.41
2023-08-11T23:19:43.773Z,22.44
2023-08-11T23:22:11.423Z,22.45
2023-08-11T23:24:39.077Z,22.45
2023-08-11T23:27:06.709Z,22.47
2023-08-11T23:29:34.402Z,22.48
2023-08-11T23:32:02.246Z,22.48
2023-08-11T23:34:29.850Z,22.49
2023-08-11T23:36:57.490Z,22.51
2023-08-11T23:39:25.387Z,22.51
2023-08-11T23:41:53.288Z,22.51
2023-08-11T23:44:20.948Z,22.52
2023-08-11T23:46:48.643Z,22.52
2023-08-11T23:49:16.389Z,22.50
2023-08-11T23:51:44.353Z,22.46
2023-08-11T23:54:12.044Z,22.42
2023-08-11T23:56:39.670Z,22.38
2023-08-11T23:59:07.618Z,22.34
